sensor_id;sensor_type;location;lat;lon;timestamp;P1;durP1;ratioP1;P2;durP2;ratioP2
74196;SDS011;62555;52.678;4.900;2023-05-07T00:01:28;1.57;;;1.37;;
74196;SDS011;62555;52.678;4.900;2023-05-07T00:03:53;1.80;;;1.70;;
74196;SDS011;62555;52.678;4.900;2023-05-07T00:06:18;2.03;;;1.80;;
74196;SDS011;62555;52.678;4.900;2023-05-07T00:08:44;2.40;;;1.80;;
74196;SDS011;62555;52.678;4.900;2023-05-07T00:11:09;2.30;;;1.75;;
74196;SDS011;62555;52.678;4.900;2023-05-07T00:13:35;2.00;;;1.90;;
74196;SDS011;62555;52.678;4.900;2023-05-07T00:16:01;1.48;;;1.38;;
74196;SDS011;62555;52.678;4.900;2023-05-07T00:18:26;2.00;;;1.90;;
74196;SDS011;62555;52.678;4.900;2023-05-07T00:20:51;1.60;;;1.50;;
74196;SDS011;62555;52.678;4.900;2023-05-07T00:23:16;1.92;;;1.77;;
74196;SDS011;62555;52.678;4.900;2023-05-07T00:25:42;2.77;;;2.10;;
74196;SDS011;62555;52.678;4.900;2023-05-07T00:28:07;2.13;;;1.88;;
74196;SDS011;62555;52.678;4.900;2023-05-07T00:30:32;2.37;;;2.00;;
74196;SDS011;62555;52.678;4.900;2023-05-07T00:32:57;1.90;;;1.80;;
74196;SDS011;62555;52.678;4.900;2023-05-07T00:35:22;1.90;;;1.80;;
74196;SDS011;62555;52.678;4.900;2023-05-07T00:37:47;1.77;;;1.67;;
74196;SDS011;62555;52.678;4.900;2023-05-07T00:40:13;1.88;;;1.52;;
74196;SDS011;62555;52.678;4.900;2023-05-07T00:42:39;2.03;;;1.77;;
74196;SDS011;62555;52.678;4.900;2023-05-07T00:45:04;2.10;;;1.90;;
74196;SDS011;62555;52.678;4.900;2023-05-07T00:47:30;1.73;;;1.63;;
74196;SDS011;62555;52.678;4.900;2023-05-07T00:49:55;1.80;;;1.70;;
74196;SDS011;62555;52.678;4.900;2023-05-07T00:52:21;2.08;;;1.63;;
74196;SDS011;62555;52.678;4.900;2023-05-07T00:54:48;2.13;;;2.00;;
74196;SDS011;62555;52.678;4.900;2023-05-07T00:57:14;2.95;;;1.83;;
74196;SDS011;62555;52.678;4.900;2023-05-07T00:59:39;2.10;;;1.90;;
74196;SDS011;62555;52.678;4.900;2023-05-07T01:02:05;2.10;;;2.00;;
74196;SDS011;62555;52.678;4.900;2023-05-07T01:04:30;2.30;;;1.90;;
74196;SDS011;62555;52.678;4.900;2023-05-07T01:06:56;1.73;;;1.63;;
74196;SDS011;62555;52.678;4.900;2023-05-07T01:09:22;1.85;;;1.75;;
74196;SDS011;62555;52.678;4.900;2023-05-07T01:11:49;1.92;;;1.83;;
74196;SDS011;62555;52.678;4.900;2023-05-07T01:14:15;1.80;;;1.70;;
74196;SDS011;62555;52.678;4.900;2023-05-07T01:16:40;2.35;;;1.70;;
74196;SDS011;62555;52.678;4.900;2023-05-07T01:19:06;2.38;;;1.80;;
74196;SDS011;62555;52.678;4.900;2023-05-07T01:21:33;2.13;;;2.03;;
74196;SDS011;62555;52.678;4.900;2023-05-07T01:23:59;2.50;;;2.30;;
74196;SDS011;62555;52.678;4.900;2023-05-07T01:26:24;2.10;;;1.80;;
74196;SDS011;62555;52.678;4.900;2023-05-07T01:28:49;2.23;;;2.03;;
74196;SDS011;62555;52.678;4.900;2023-05-07T01:31:14;2.13;;;1.92;;
74196;SDS011;62555;52.678;4.900;2023-05-07T01:33:40;2.20;;;2.00;;
74196;SDS011;62555;52.678;4.900;2023-05-07T01:36:06;1.98;;;1.80;;
74196;SDS011;62555;52.678;4.900;2023-05-07T01:38:33;2.47;;;2.08;;
74196;SDS011;62555;52.678;4.900;2023-05-07T01:40:59;2.10;;;1.70;;
74196;SDS011;62555;52.678;4.900;2023-05-07T01:43:25;2.30;;;2.10;;
74196;SDS011;62555;52.678;4.900;2023-05-07T01:45:50;2.10;;;1.80;;
74196;SDS011;62555;52.678;4.900;2023-05-07T01:48:15;1.90;;;1.80;;
74196;SDS011;62555;52.678;4.900;2023-05-07T01:50:41;1.95;;;1.85;;
74196;SDS011;62555;52.678;4.900;2023-05-07T01:53:06;2.50;;;2.30;;
74196;SDS011;62555;52.678;4.900;2023-05-07T01:55:31;2.70;;;2.23;;
74196;SDS011;62555;52.678;4.900;2023-05-07T01:57:56;2.30;;;1.80;;
74196;SDS011;62555;52.678;4.900;2023-05-07T02:00:22;3.03;;;2.30;;
74196;SDS011;62555;52.678;4.900;2023-05-07T02:02:47;2.40;;;2.20;;
74196;SDS011;62555;52.678;4.900;2023-05-07T02:05:12;2.43;;;2.23;;
74196;SDS011;62555;52.678;4.900;2023-05-07T02:07:37;2.38;;;2.20;;
74196;SDS011;62555;52.678;4.900;2023-05-07T02:10:03;2.30;;;2.10;;
74196;SDS011;62555;52.678;4.900;2023-05-07T02:12:28;2.45;;;2.25;;
74196;SDS011;62555;52.678;4.900;2023-05-07T02:14:53;2.28;;;2.08;;
74196;SDS011;62555;52.678;4.900;2023-05-07T02:17:18;2.40;;;2.20;;
74196;SDS011;62555;52.678;4.900;2023-05-07T02:19:43;2.58;;;2.38;;
74196;SDS011;62555;52.678;4.900;2023-05-07T02:22:09;2.13;;;1.92;;
74196;SDS011;62555;52.678;4.900;2023-05-07T02:24:34;2.65;;;2.45;;
74196;SDS011;62555;52.678;4.900;2023-05-07T02:26:59;2.27;;;2.07;;
74196;SDS011;62555;52.678;4.900;2023-05-07T02:29:25;2.42;;;2.22;;
74196;SDS011;62555;52.678;4.900;2023-05-07T02:31:50;2.80;;;2.55;;
74196;SDS011;62555;52.678;4.900;2023-05-07T02:36:42;2.58;;;2.20;;
74196;SDS011;62555;52.678;4.900;2023-05-07T02:39:08;2.93;;;2.30;;
74196;SDS011;62555;52.678;4.900;2023-05-07T02:41:33;2.63;;;2.40;;
74196;SDS011;62555;52.678;4.900;2023-05-07T02:43:58;3.87;;;2.70;;
74196;SDS011;62555;52.678;4.900;2023-05-07T02:46:23;2.10;;;2.00;;
74196;SDS011;62555;52.678;4.900;2023-05-07T02:48:48;2.38;;;2.17;;
74196;SDS011;62555;52.678;4.900;2023-05-07T02:51:14;2.30;;;2.10;;
74196;SDS011;62555;52.678;4.900;2023-05-07T02:53:39;3.17;;;2.73;;
74196;SDS011;62555;52.678;4.900;2023-05-07T02:56:04;2.67;;;2.47;;
74196;SDS011;62555;52.678;4.900;2023-05-07T02:58:30;2.60;;;2.20;;
74196;SDS011;62555;52.678;4.900;2023-05-07T03:00:55;2.37;;;2.13;;
74196;SDS011;62555;52.678;4.900;2023-05-07T03:03:21;2.33;;;2.13;;
74196;SDS011;62555;52.678;4.900;2023-05-07T03:05:46;2.23;;;2.03;;
74196;SDS011;62555;52.678;4.900;2023-05-07T03:08:11;2.58;;;2.25;;
74196;SDS011;62555;52.678;4.900;2023-05-07T03:10:36;2.33;;;2.13;;
74196;SDS011;62555;52.678;4.900;2023-05-07T03:13:02;2.38;;;2.17;;
74196;SDS011;62555;52.678;4.900;2023-05-07T03:15:27;2.30;;;2.05;;
74196;SDS011;62555;52.678;4.900;2023-05-07T03:17:52;2.47;;;2.27;;
74196;SDS011;62555;52.678;4.900;2023-05-07T03:20:17;2.20;;;2.00;;
74196;SDS011;62555;52.678;4.900;2023-05-07T03:22:43;2.50;;;2.30;;
74196;SDS011;62555;52.678;4.900;2023-05-07T03:25:08;2.30;;;2.10;;
74196;SDS011;62555;52.678;4.900;2023-05-07T03:27:33;2.40;;;2.20;;
74196;SDS011;62555;52.678;4.900;2023-05-07T03:29:59;2.50;;;2.30;;
74196;SDS011;62555;52.678;4.900;2023-05-07T03:32:24;2.30;;;2.10;;
74196;SDS011;62555;52.678;4.900;2023-05-07T03:34:49;2.63;;;2.43;;
74196;SDS011;62555;52.678;4.900;2023-05-07T03:37:15;2.50;;;2.17;;
74196;SDS011;62555;52.678;4.900;2023-05-07T03:39:41;2.67;;;2.30;;
74196;SDS011;62555;52.678;4.900;2023-05-07T03:42:06;2.00;;;1.90;;
74196;SDS011;62555;52.678;4.900;2023-05-07T03:44:31;2.40;;;2.20;;
74196;SDS011;62555;52.678;4.900;2023-05-07T03:46:56;2.30;;;2.10;;
74196;SDS011;62555;52.678;4.900;2023-05-07T03:49:21;2.37;;;2.17;;
74196;SDS011;62555;52.678;4.900;2023-05-07T03:51:46;2.90;;;2.70;;
74196;SDS011;62555;52.678;4.900;2023-05-07T03:54:12;2.63;;;2.20;;
74196;SDS011;62555;52.678;4.900;2023-05-07T03:56:37;2.40;;;2.20;;
74196;SDS011;62555;52.678;4.900;2023-05-07T03:59:02;2.50;;;2.30;;
74196;SDS011;62555;52.678;4.900;2023-05-07T04:01:27;2.38;;;2.17;;
74196;SDS011;62555;52.678;4.900;2023-05-07T04:03:53;2.37;;;2.10;;
74196;SDS011;62555;52.678;4.900;2023-05-07T04:06:18;1.83;;;1.73;;
74196;SDS011;62555;52.678;4.900;2023-05-07T04:08:43;2.17;;;2.00;;
74196;SDS011;62555;52.678;4.900;2023-05-07T04:11:08;2.78;;;1.90;;
74196;SDS011;62555;52.678;4.900;2023-05-07T04:13:33;2.07;;;1.87;;
74196;SDS011;62555;52.678;4.900;2023-05-07T04:16:00;2.83;;;2.20;;
74196;SDS011;62555;52.678;4.900;2023-05-07T04:18:25;2.10;;;2.00;;
74196;SDS011;62555;52.678;4.900;2023-05-07T04:20:51;2.70;;;2.10;;
74196;SDS011;62555;52.678;4.900;2023-05-07T04:23:16;2.27;;;2.07;;
74196;SDS011;62555;52.678;4.900;2023-05-07T04:25:41;1.97;;;1.60;;
74196;SDS011;62555;52.678;4.900;2023-05-07T04:28:06;2.30;;;2.10;;
74196;SDS011;62555;52.678;4.900;2023-05-07T04:30:31;2.10;;;1.90;;
74196;SDS011;62555;52.678;4.900;2023-05-07T04:32:57;2.40;;;2.20;;
74196;SDS011;62555;52.678;4.900;2023-05-07T04:35:22;1.90;;;1.70;;
74196;SDS011;62555;52.678;4.900;2023-05-07T04:37:47;2.63;;;2.00;;
74196;SDS011;62555;52.678;4.900;2023-05-07T04:40:12;2.97;;;2.23;;
74196;SDS011;62555;52.678;4.900;2023-05-07T04:42:38;2.13;;;1.67;;
74196;SDS011;62555;52.678;4.900;2023-05-07T04:45:03;1.93;;;1.80;;
74196;SDS011;62555;52.678;4.900;2023-05-07T04:47:29;1.90;;;1.80;;
74196;SDS011;62555;52.678;4.900;2023-05-07T04:49:54;2.40;;;1.80;;
74196;SDS011;62555;52.678;4.900;2023-05-07T04:52:20;1.90;;;1.80;;
74196;SDS011;62555;52.678;4.900;2023-05-07T04:54:45;2.20;;;1.73;;
74196;SDS011;62555;52.678;4.900;2023-05-07T04:57:10;2.10;;;1.70;;
74196;SDS011;62555;52.678;4.900;2023-05-07T04:59:35;2.07;;;1.87;;
74196;SDS011;62555;52.678;4.900;2023-05-07T05:02:00;1.77;;;1.67;;
74196;SDS011;62555;52.678;4.900;2023-05-07T05:04:26;2.05;;;1.58;;
74196;SDS011;62555;52.678;4.900;2023-05-07T05:06:51;1.60;;;1.50;;
74196;SDS011;62555;52.678;4.900;2023-05-07T05:09:16;1.87;;;1.70;;
74196;SDS011;62555;52.678;4.900;2023-05-07T05:11:41;2.37;;;1.40;;
74196;SDS011;62555;52.678;4.900;2023-05-07T05:14:07;3.00;;;1.93;;
74196;SDS011;62555;52.678;4.900;2023-05-07T05:16:32;2.40;;;1.60;;
74196;SDS011;62555;52.678;4.900;2023-05-07T05:18:57;1.90;;;1.80;;
74196;SDS011;62555;52.678;4.900;2023-05-07T05:21:22;1.70;;;1.58;;
74196;SDS011;62555;52.678;4.900;2023-05-07T05:23:48;2.07;;;1.87;;
74196;SDS011;62555;52.678;4.900;2023-05-07T05:26:13;1.80;;;1.70;;
74196;SDS011;62555;52.678;4.900;2023-05-07T05:28:38;2.13;;;1.77;;
74196;SDS011;62555;52.678;4.900;2023-05-07T05:31:04;1.73;;;1.63;;
74196;SDS011;62555;52.678;4.900;2023-05-07T05:33:29;1.63;;;1.50;;
74196;SDS011;62555;52.678;4.900;2023-05-07T05:35:55;2.10;;;1.90;;
74196;SDS011;62555;52.678;4.900;2023-05-07T05:38:20;1.87;;;1.60;;
74196;SDS011;62555;52.678;4.900;2023-05-07T05:40:45;1.73;;;1.60;;
74196;SDS011;62555;52.678;4.900;2023-05-07T05:43:11;1.38;;;1.27;;
74196;SDS011;62555;52.678;4.900;2023-05-07T05:45:36;1.53;;;1.43;;
74196;SDS011;62555;52.678;4.900;2023-05-07T05:48:01;1.60;;;1.50;;
74196;SDS011;62555;52.678;4.900;2023-05-07T05:50:26;1.60;;;1.50;;
74196;SDS011;62555;52.678;4.900;2023-05-07T05:52:51;1.77;;;1.30;;
74196;SDS011;62555;52.678;4.900;2023-05-07T05:55:16;2.13;;;1.70;;
74196;SDS011;62555;52.678;4.900;2023-05-07T05:57:42;1.55;;;1.45;;
74196;SDS011;62555;52.678;4.900;2023-05-07T06:00:07;1.60;;;1.50;;
74196;SDS011;62555;52.678;4.900;2023-05-07T06:02:33;1.70;;;1.60;;
74196;SDS011;62555;52.678;4.900;2023-05-07T06:04:58;1.70;;;1.30;;
74196;SDS011;62555;52.678;4.900;2023-05-07T06:07:23;1.63;;;1.53;;
74196;SDS011;62555;52.678;4.900;2023-05-07T06:09:48;1.40;;;1.30;;
74196;SDS011;62555;52.678;4.900;2023-05-07T06:12:13;2.37;;;1.73;;
74196;SDS011;62555;52.678;4.900;2023-05-07T06:14:38;1.97;;;1.77;;
74196;SDS011;62555;52.678;4.900;2023-05-07T06:17:04;1.70;;;1.60;;
74196;SDS011;62555;52.678;4.900;2023-05-07T06:19:30;1.90;;;1.70;;
74196;SDS011;62555;52.678;4.900;2023-05-07T06:21:55;1.75;;;1.65;;
74196;SDS011;62555;52.678;4.900;2023-05-07T06:24:26;1.73;;;1.63;;
74196;SDS011;62555;52.678;4.900;2023-05-07T06:26:51;1.90;;;1.58;;
74196;SDS011;62555;52.678;4.900;2023-05-07T06:29:16;1.67;;;1.53;;
74196;SDS011;62555;52.678;4.900;2023-05-07T06:31:41;2.03;;;1.73;;
74196;SDS011;62555;52.678;4.900;2023-05-07T06:34:07;2.23;;;1.50;;
74196;SDS011;62555;52.678;4.900;2023-05-07T06:36:32;1.75;;;1.60;;
74196;SDS011;62555;52.678;4.900;2023-05-07T06:38:57;1.90;;;1.60;;
74196;SDS011;62555;52.678;4.900;2023-05-07T06:41:22;1.50;;;1.40;;
74196;SDS011;62555;52.678;4.900;2023-05-07T06:43:47;2.63;;;1.67;;
74196;SDS011;62555;52.678;4.900;2023-05-07T06:46:12;1.58;;;1.48;;
74196;SDS011;62555;52.678;4.900;2023-05-07T06:48:38;1.60;;;1.50;;
74196;SDS011;62555;52.678;4.900;2023-05-07T06:51:03;1.77;;;1.67;;
74196;SDS011;62555;52.678;4.900;2023-05-07T06:53:28;1.80;;;1.70;;
74196;SDS011;62555;52.678;4.900;2023-05-07T06:55:55;1.83;;;1.73;;
74196;SDS011;62555;52.678;4.900;2023-05-07T06:58:20;1.50;;;1.40;;
74196;SDS011;62555;52.678;4.900;2023-05-07T07:00:45;1.45;;;1.35;;
74196;SDS011;62555;52.678;4.900;2023-05-07T07:03:11;1.50;;;1.38;;
74196;SDS011;62555;52.678;4.900;2023-05-07T07:05:36;1.60;;;1.50;;
74196;SDS011;62555;52.678;4.900;2023-05-07T07:08:01;1.60;;;1.50;;
74196;SDS011;62555;52.678;4.900;2023-05-07T07:10:26;1.80;;;1.70;;
74196;SDS011;62555;52.678;4.900;2023-05-07T07:12:51;1.60;;;1.40;;
74196;SDS011;62555;52.678;4.900;2023-05-07T07:15:17;1.58;;;1.48;;
74196;SDS011;62555;52.678;4.900;2023-05-07T07:17:42;1.60;;;1.50;;
74196;SDS011;62555;52.678;4.900;2023-05-07T07:20:08;1.63;;;1.43;;
74196;SDS011;62555;52.678;4.900;2023-05-07T07:22:33;1.45;;;1.35;;
74196;SDS011;62555;52.678;4.900;2023-05-07T07:24:58;1.70;;;1.60;;
74196;SDS011;62555;52.678;4.900;2023-05-07T07:27:23;2.03;;;1.83;;
74196;SDS011;62555;52.678;4.900;2023-05-07T07:29:49;1.43;;;1.30;;
74196;SDS011;62555;52.678;4.900;2023-05-07T07:32:14;1.58;;;1.48;;
74196;SDS011;62555;52.678;4.900;2023-05-07T07:34:39;1.50;;;1.40;;
74196;SDS011;62555;52.678;4.900;2023-05-07T07:37:05;1.60;;;1.50;;
74196;SDS011;62555;52.678;4.900;2023-05-07T07:39:34;2.17;;;1.65;;
74196;SDS011;62555;52.678;4.900;2023-05-07T07:41:59;1.90;;;1.67;;
74196;SDS011;62555;52.678;4.900;2023-05-07T07:44:25;1.90;;;1.70;;
74196;SDS011;62555;52.678;4.900;2023-05-07T07:46:50;1.52;;;1.42;;
74196;SDS011;62555;52.678;4.900;2023-05-07T07:49:15;1.40;;;1.30;;
74196;SDS011;62555;52.678;4.900;2023-05-07T07:51:41;1.98;;;1.67;;
74196;SDS011;62555;52.678;4.900;2023-05-07T07:54:06;1.80;;;1.70;;
74196;SDS011;62555;52.678;4.900;2023-05-07T07:56:34;1.50;;;1.40;;
74196;SDS011;62555;52.678;4.900;2023-05-07T07:58:59;1.58;;;1.25;;
74196;SDS011;62555;52.678;4.900;2023-05-07T08:01:25;1.70;;;1.60;;
74196;SDS011;62555;52.678;4.900;2023-05-07T08:03:51;1.92;;;1.83;;
74196;SDS011;62555;52.678;4.900;2023-05-07T08:06:16;1.70;;;1.60;;
74196;SDS011;62555;52.678;4.900;2023-05-07T08:08:41;1.90;;;1.70;;
74196;SDS011;62555;52.678;4.900;2023-05-07T08:11:06;1.50;;;1.40;;
74196;SDS011;62555;52.678;4.900;2023-05-07T08:13:31;2.07;;;1.87;;
74196;SDS011;62555;52.678;4.900;2023-05-07T08:15:57;1.80;;;1.70;;
74196;SDS011;62555;52.678;4.900;2023-05-07T08:18:22;1.90;;;1.60;;
74196;SDS011;62555;52.678;4.900;2023-05-07T08:20:49;1.90;;;1.80;;
74196;SDS011;62555;52.678;4.900;2023-05-07T08:23:14;1.80;;;1.70;;
74196;SDS011;62555;52.678;4.900;2023-05-07T08:25:40;2.07;;;1.90;;
74196;SDS011;62555;52.678;4.900;2023-05-07T08:28:05;2.03;;;1.93;;
74196;SDS011;62555;52.678;4.900;2023-05-07T08:30:30;2.03;;;1.50;;
74196;SDS011;62555;52.678;4.900;2023-05-07T08:32:55;1.87;;;1.77;;
74196;SDS011;62555;52.678;4.900;2023-05-07T08:35:20;1.60;;;1.50;;
74196;SDS011;62555;52.678;4.900;2023-05-07T08:37:46;1.63;;;1.53;;
74196;SDS011;62555;52.678;4.900;2023-05-07T08:40:11;2.63;;;2.00;;
74196;SDS011;62555;52.678;4.900;2023-05-07T08:42:36;1.60;;;1.47;;
74196;SDS011;62555;52.678;4.900;2023-05-07T08:45:05;2.45;;;2.25;;
74196;SDS011;62555;52.678;4.900;2023-05-07T08:47:43;1.80;;;1.70;;
74196;SDS011;62555;52.678;4.900;2023-05-07T08:50:11;2.17;;;2.03;;
74196;SDS011;62555;52.678;4.900;2023-05-07T08:52:37;2.33;;;2.22;;
74196;SDS011;62555;52.678;4.900;2023-05-07T08:55:03;2.50;;;2.08;;
74196;SDS011;62555;52.678;4.900;2023-05-07T08:57:29;2.03;;;1.90;;
74196;SDS011;62555;52.678;4.900;2023-05-07T08:59:54;2.20;;;1.77;;
74196;SDS011;62555;52.678;4.900;2023-05-07T09:02:20;2.25;;;2.00;;
74196;SDS011;62555;52.678;4.900;2023-05-07T09:04:45;2.17;;;1.98;;
74196;SDS011;62555;52.678;4.900;2023-05-07T09:07:10;2.17;;;1.97;;
74196;SDS011;62555;52.678;4.900;2023-05-07T09:09:36;2.23;;;2.03;;
74196;SDS011;62555;52.678;4.900;2023-05-07T09:12:02;2.50;;;2.30;;
74196;SDS011;62555;52.678;4.900;2023-05-07T09:14:28;2.08;;;1.98;;
74196;SDS011;62555;52.678;4.900;2023-05-07T09:16:53;2.10;;;1.90;;
74196;SDS011;62555;52.678;4.900;2023-05-07T09:19:22;2.47;;;2.00;;
74196;SDS011;62555;52.678;4.900;2023-05-07T09:21:48;2.50;;;2.30;;
74196;SDS011;62555;52.678;4.900;2023-05-07T09:24:15;2.33;;;2.13;;
74196;SDS011;62555;52.678;4.900;2023-05-07T09:26:40;2.05;;;1.95;;
74196;SDS011;62555;52.678;4.900;2023-05-07T09:29:05;2.30;;;1.95;;
74196;SDS011;62555;52.678;4.900;2023-05-07T09:31:31;2.30;;;2.10;;
74196;SDS011;62555;52.678;4.900;2023-05-07T09:33:56;2.30;;;2.10;;
74196;SDS011;62555;52.678;4.900;2023-05-07T09:36:22;3.42;;;2.10;;
74196;SDS011;62555;52.678;4.900;2023-05-07T09:38:47;2.38;;;2.17;;
74196;SDS011;62555;52.678;4.900;2023-05-07T09:41:13;2.07;;;1.90;;
74196;SDS011;62555;52.678;4.900;2023-05-07T09:43:38;3.17;;;2.28;;
74196;SDS011;62555;52.678;4.900;2023-05-07T09:46:07;2.15;;;2.03;;
74196;SDS011;62555;52.678;4.900;2023-05-07T09:48:36;2.50;;;2.30;;
74196;SDS011;62555;52.678;4.900;2023-05-07T09:51:02;2.85;;;2.63;;
74196;SDS011;62555;52.678;4.900;2023-05-07T09:53:31;2.80;;;2.60;;
74196;SDS011;62555;52.678;4.900;2023-05-07T09:55:58;3.42;;;3.13;;
74196;SDS011;62555;52.678;4.900;2023-05-07T09:58:24;3.22;;;3.00;;
74196;SDS011;62555;52.678;4.900;2023-05-07T10:00:50;3.58;;;3.05;;
74196;SDS011;62555;52.678;4.900;2023-05-07T10:03:16;4.13;;;3.40;;
74196;SDS011;62555;52.678;4.900;2023-05-07T10:05:42;3.58;;;2.97;;
74196;SDS011;62555;52.678;4.900;2023-05-07T10:08:09;3.60;;;3.30;;
74196;SDS011;62555;52.678;4.900;2023-05-07T10:10:34;3.17;;;2.92;;
74196;SDS011;62555;52.678;4.900;2023-05-07T10:13:00;5.25;;;4.68;;
74196;SDS011;62555;52.678;4.900;2023-05-07T10:15:26;4.55;;;3.90;;
74196;SDS011;62555;52.678;4.900;2023-05-07T10:17:53;5.47;;;3.67;;
74196;SDS011;62555;52.678;4.900;2023-05-07T10:20:18;5.90;;;3.75;;
74196;SDS011;62555;52.678;4.900;2023-05-07T10:22:44;4.17;;;3.60;;
74196;SDS011;62555;52.678;4.900;2023-05-07T10:25:17;7.68;;;4.10;;
74196;SDS011;62555;52.678;4.900;2023-05-07T10:32:45;6.40;;;3.30;;
74196;SDS011;62555;52.678;4.900;2023-05-07T10:35:14;4.07;;;3.60;;
74196;SDS011;62555;52.678;4.900;2023-05-07T10:37:41;3.80;;;3.38;;
74196;SDS011;62555;52.678;4.900;2023-05-07T10:40:06;4.20;;;3.72;;
74196;SDS011;62555;52.678;4.900;2023-05-07T10:42:32;3.92;;;3.38;;
74196;SDS011;62555;52.678;4.900;2023-05-07T10:44:57;3.27;;;2.97;;
74196;SDS011;62555;52.678;4.900;2023-05-07T10:47:22;3.30;;;3.00;;
74196;SDS011;62555;52.678;4.900;2023-05-07T10:52:17;3.47;;;3.17;;
74196;SDS011;62555;52.678;4.900;2023-05-07T10:54:43;3.33;;;3.03;;
74196;SDS011;62555;52.678;4.900;2023-05-07T10:59:54;3.35;;;3.05;;
74196;SDS011;62555;52.678;4.900;2023-05-07T11:02:19;3.03;;;2.77;;
74196;SDS011;62555;52.678;4.900;2023-05-07T11:04:45;3.47;;;3.10;;
74196;SDS011;62555;52.678;4.900;2023-05-07T11:07:15;3.93;;;3.57;;
74196;SDS011;62555;52.678;4.900;2023-05-07T11:12:18;3.53;;;3.22;;
74196;SDS011;62555;52.678;4.900;2023-05-07T11:15:12;4.03;;;3.10;;
74196;SDS011;62555;52.678;4.900;2023-05-07T11:17:54;3.30;;;2.95;;
74196;SDS011;62555;52.678;4.900;2023-05-07T11:20:19;3.13;;;2.83;;
74196;SDS011;62555;52.678;4.900;2023-05-07T11:22:45;4.28;;;2.60;;
74196;SDS011;62555;52.678;4.900;2023-05-07T11:25:10;3.60;;;2.87;;
74196;SDS011;62555;52.678;4.900;2023-05-07T11:27:41;3.35;;;3.05;;
74196;SDS011;62555;52.678;4.900;2023-05-07T11:30:07;3.60;;;2.80;;
74196;SDS011;62555;52.678;4.900;2023-05-07T11:32:32;3.55;;;3.25;;
74196;SDS011;62555;52.678;4.900;2023-05-07T11:34:58;5.83;;;2.83;;
74196;SDS011;62555;52.678;4.900;2023-05-07T11:37:24;2.95;;;2.75;;
74196;SDS011;62555;52.678;4.900;2023-05-07T11:39:49;3.17;;;2.70;;
74196;SDS011;62555;52.678;4.900;2023-05-07T11:42:32;3.28;;;2.97;;
74196;SDS011;62555;52.678;4.900;2023-05-07T11:44:57;3.38;;;2.85;;
74196;SDS011;62555;52.678;4.900;2023-05-07T11:47:23;3.33;;;3.03;;
74196;SDS011;62555;52.678;4.900;2023-05-07T11:49:49;2.85;;;2.30;;
74196;SDS011;62555;52.678;4.900;2023-05-07T11:52:15;2.80;;;2.58;;
74196;SDS011;62555;52.678;4.900;2023-05-07T11:54:40;2.95;;;2.72;;
74196;SDS011;62555;52.678;4.900;2023-05-07T11:57:05;2.93;;;2.73;;
74196;SDS011;62555;52.678;4.900;2023-05-07T11:59:38;3.05;;;2.70;;
74196;SDS011;62555;52.678;4.900;2023-05-07T12:02:05;3.13;;;2.90;;
74196;SDS011;62555;52.678;4.900;2023-05-07T12:04:30;3.65;;;2.60;;
74196;SDS011;62555;52.678;4.900;2023-05-07T12:06:55;3.60;;;2.87;;
74196;SDS011;62555;52.678;4.900;2023-05-07T12:09:21;2.93;;;2.63;;
74196;SDS011;62555;52.678;4.900;2023-05-07T12:11:46;2.93;;;2.67;;
74196;SDS011;62555;52.678;4.900;2023-05-07T12:14:11;3.20;;;2.92;;
74196;SDS011;62555;52.678;4.900;2023-05-07T12:16:36;2.93;;;2.63;;
74196;SDS011;62555;52.678;4.900;2023-05-07T12:19:02;3.33;;;2.95;;
74196;SDS011;62555;52.678;4.900;2023-05-07T12:21:27;2.93;;;2.73;;
74196;SDS011;62555;52.678;4.900;2023-05-07T12:23:52;2.90;;;2.60;;
74196;SDS011;62555;52.678;4.900;2023-05-07T12:26:19;3.30;;;3.00;;
74196;SDS011;62555;52.678;4.900;2023-05-07T12:28:44;3.20;;;2.90;;
74196;SDS011;62555;52.678;4.900;2023-05-07T12:31:09;2.57;;;2.37;;
74196;SDS011;62555;52.678;4.900;2023-05-07T12:33:35;3.20;;;2.72;;
74196;SDS011;62555;52.678;4.900;2023-05-07T12:36:02;2.83;;;2.63;;
74196;SDS011;62555;52.678;4.900;2023-05-07T12:38:33;3.40;;;2.92;;
74196;SDS011;62555;52.678;4.900;2023-05-07T12:40:59;3.13;;;2.75;;
74196;SDS011;62555;52.678;4.900;2023-05-07T12:43:24;3.33;;;2.53;;
74196;SDS011;62555;52.678;4.900;2023-05-07T12:45:51;2.92;;;2.05;;
74196;SDS011;62555;52.678;4.900;2023-05-07T12:48:16;2.47;;;1.75;;
74196;SDS011;62555;52.678;4.900;2023-05-07T12:50:41;1.50;;;1.40;;
74196;SDS011;62555;52.678;4.900;2023-05-07T12:53:08;1.55;;;1.40;;
74196;SDS011;62555;52.678;4.900;2023-05-07T12:55:43;1.95;;;1.13;;
74196;SDS011;62555;52.678;4.900;2023-05-07T12:58:14;0.60;;;0.60;;
74196;SDS011;62555;52.678;4.900;2023-05-07T13:00:39;0.65;;;0.60;;
74196;SDS011;62555;52.678;4.900;2023-05-07T13:03:04;0.57;;;0.57;;
74196;SDS011;62555;52.678;4.900;2023-05-07T13:05:30;0.83;;;0.83;;
74196;SDS011;62555;52.678;4.900;2023-05-07T13:07:56;1.30;;;0.95;;
74196;SDS011;62555;52.678;4.900;2023-05-07T13:10:22;1.45;;;0.88;;
74196;SDS011;62555;52.678;4.900;2023-05-07T13:12:47;1.40;;;0.70;;
74196;SDS011;62555;52.678;4.900;2023-05-07T13:15:12;1.40;;;0.77;;
74196;SDS011;62555;52.678;4.900;2023-05-07T13:17:37;1.80;;;0.67;;
74196;SDS011;62555;52.678;4.900;2023-05-07T13:20:03;1.77;;;0.70;;
74196;SDS011;62555;52.678;4.900;2023-05-07T13:22:28;2.63;;;0.75;;
74196;SDS011;62555;52.678;4.900;2023-05-07T13:24:54;1.23;;;0.83;;
74196;SDS011;62555;52.678;4.900;2023-05-07T13:27:19;1.17;;;0.80;;
74196;SDS011;62555;52.678;4.900;2023-05-07T13:29:45;1.55;;;0.82;;
74196;SDS011;62555;52.678;4.900;2023-05-07T13:32:10;2.77;;;0.50;;
74196;SDS011;62555;52.678;4.900;2023-05-07T13:34:35;0.40;;;0.40;;
74196;SDS011;62555;52.678;4.900;2023-05-07T13:37:01;0.85;;;0.52;;
74196;SDS011;62555;52.678;4.900;2023-05-07T13:39:27;1.40;;;0.70;;
74196;SDS011;62555;52.678;4.900;2023-05-07T13:41:52;1.13;;;0.50;;
74196;SDS011;62555;52.678;4.900;2023-05-07T13:44:17;1.10;;;0.70;;
74196;SDS011;62555;52.678;4.900;2023-05-07T13:46:42;1.03;;;0.50;;
74196;SDS011;62555;52.678;4.900;2023-05-07T13:49:07;2.10;;;0.70;;
74196;SDS011;62555;52.678;4.900;2023-05-07T13:51:33;2.37;;;0.80;;
74196;SDS011;62555;52.678;4.900;2023-05-07T13:53:58;1.33;;;0.63;;
74196;SDS011;62555;52.678;4.900;2023-05-07T13:56:23;1.65;;;0.43;;
74196;SDS011;62555;52.678;4.900;2023-05-07T13:58:48;1.93;;;0.50;;
74196;SDS011;62555;52.678;4.900;2023-05-07T14:01:13;2.57;;;0.60;;
74196;SDS011;62555;52.678;4.900;2023-05-07T14:03:39;1.20;;;1.10;;
74196;SDS011;62555;52.678;4.900;2023-05-07T14:06:04;0.60;;;0.45;;
74196;SDS011;62555;52.678;4.900;2023-05-07T14:08:30;1.17;;;0.83;;
74196;SDS011;62555;52.678;4.900;2023-05-07T14:10:55;0.40;;;0.40;;
74196;SDS011;62555;52.678;4.900;2023-05-07T14:13:20;1.43;;;0.57;;
74196;SDS011;62555;52.678;4.900;2023-05-07T14:15:45;0.90;;;0.40;;
74196;SDS011;62555;52.678;4.900;2023-05-07T14:18:15;1.45;;;0.47;;
74196;SDS011;62555;52.678;4.900;2023-05-07T14:20:40;0.80;;;0.60;;
74196;SDS011;62555;52.678;4.900;2023-05-07T14:23:05;0.83;;;0.43;;
74196;SDS011;62555;52.678;4.900;2023-05-07T14:25:31;0.43;;;0.30;;
74196;SDS011;62555;52.678;4.900;2023-05-07T14:27:56;0.20;;;0.20;;
74196;SDS011;62555;52.678;4.900;2023-05-07T14:30:21;0.50;;;0.30;;
74196;SDS011;62555;52.678;4.900;2023-05-07T14:32:49;0.70;;;0.22;;
74196;SDS011;62555;52.678;4.900;2023-05-07T14:35:14;0.32;;;0.30;;
74196;SDS011;62555;52.678;4.900;2023-05-07T14:37:39;0.40;;;0.30;;
74196;SDS011;62555;52.678;4.900;2023-05-07T14:40:05;1.40;;;1.30;;
74196;SDS011;62555;52.678;4.900;2023-05-07T14:42:31;2.72;;;2.00;;
74196;SDS011;62555;52.678;4.900;2023-05-07T14:44:56;2.47;;;1.90;;
74196;SDS011;62555;52.678;4.900;2023-05-07T14:47:21;2.40;;;2.20;;
74196;SDS011;62555;52.678;4.900;2023-05-07T14:49:46;3.27;;;2.63;;
74196;SDS011;62555;52.678;4.900;2023-05-07T14:52:11;3.63;;;3.20;;
74196;SDS011;62555;52.678;4.900;2023-05-07T14:54:37;3.72;;;3.15;;